createdAt,value
2023-04-14T00:03:00.568Z,3.20
2023-04-14T00:07:06.533Z,3.20
2023-04-14T00:11:22.846Z,3.10
2023-04-14T00:15:34.558Z,3.20
2023-04-14T00:19:43.411Z,3.20
2023-04-14T00:23:51.067Z,3.20
2023-04-14T00:28:03.151Z,3.10
2023-04-14T00:32:17.547Z,3.10
2023-04-14T00:36:29.352Z,3.00
2023-04-14T00:40:34.466Z,2.90
2023-04-14T00:44:52.334Z,2.80
2023-04-14T00:53:59.623Z,2.80
2023-04-14T00:58:15.827Z,2.80
2023-04-14T01:02:34.224Z,2.70
2023-04-14T01:06:46.126Z,2.60
2023-04-14T01:11:18.606Z,2.60
2023-04-14T01:15:34.233Z,2.60
2023-04-14T01:20:00.442Z,2.60
2023-04-14T01:24:55.564Z,2.50
2023-04-14T01:29:58.992Z,2.50
2023-04-14T01:34:34.780Z,2.30
2023-04-14T01:39:02.385Z,2.20
2023-04-14T01:43:28.740Z,2.10
2023-04-14T01:47:49.254Z,1.90
2023-04-14T01:57:29.388Z,1.80
2023-04-14T02:01:58.654Z,1.80
2023-04-14T02:06:25.262Z,1.70
2023-04-14T02:11:39.901Z,1.30
2023-04-14T02:31:50.352Z,1.10
2023-04-14T02:36:13.656Z,1.00
2023-04-14T02:45:57.399Z,0.80
2023-04-14T03:07:35.243Z,0.60
2023-04-14T05:31:05.736Z,0.60
2023-04-14T05:35:13.068Z,0.60
2023-04-14T05:39:16.849Z,0.60
2023-04-14T05:43:26.712Z,0.70
2023-04-14T05:47:33.202Z,0.70
2023-04-14T05:51:39.784Z,0.70
2023-04-14T05:55:47.370Z,0.70
2023-04-14T05:59:55.141Z,0.80
2023-04-14T06:04:00.515Z,0.90
2023-04-14T06:08:07.628Z,0.80
2023-04-14T06:12:14.499Z,0.70
2023-04-14T06:16:25.678Z,0.80
2023-04-14T06:20:32.047Z,0.80
2023-04-14T06:24:54.935Z,0.80
2023-04-14T06:29:03.261Z,0.80
2023-04-14T06:33:07.567Z,0.90
2023-04-14T06:38:09.569Z,1.00
2023-04-14T06:42:15.630Z,1.10
2023-04-14T06:46:46.192Z,1.00
2023-04-14T06:51:00.846Z,1.00
2023-04-14T06:55:04.864Z,1.10
2023-04-14T06:59:15.224Z,1.10
2023-04-14T07:03:18.955Z,1.20
2023-04-14T07:07:24.479Z,1.00
2023-04-14T07:11:29.964Z,1.00
2023-04-14T07:15:36.547Z,1.00
2023-04-14T07:19:40.132Z,1.00
2023-04-14T07:24:04.924Z,1.00
2023-04-14T07:28:13.640Z,1.00
2023-04-14T07:32:22.174Z,1.10
2023-04-14T07:36:38.425Z,1.10
2023-04-14T07:40:51.690Z,1.10
2023-04-14T07:44:57.189Z,1.10
2023-04-14T07:49:27.280Z,1.30
2023-04-14T07:53:32.760Z,1.00
2023-04-14T07:57:36.675Z,1.10
2023-04-14T08:01:40.431Z,1.20
2023-04-14T08:05:46.129Z,1.30
2023-04-14T08:09:50.842Z,1.30
2023-04-14T08:14:32.242Z,1.40
2023-04-14T08:18:38.266Z,1.50
2023-04-14T08:22:57.743Z,1.40
2023-04-14T08:27:02.222Z,1.50
2023-04-14T08:31:07.240Z,1.50
2023-04-14T08:41:42.727Z,1.70
2023-04-14T08:45:48.094Z,1.70
2023-04-14T08:50:04.598Z,1.70
2023-04-14T08:54:10.765Z,1.70
2023-04-14T08:58:16.177Z,1.70
2023-04-14T09:02:22.228Z,1.60
2023-04-14T09:06:26.570Z,1.60
2023-04-14T09:10:31.148Z,1.70
2023-04-14T09:14:39.075Z,1.60
2023-04-14T09:18:44.117Z,1.60
2023-04-14T09:22:52.667Z,1.50
2023-04-14T09:26:57.014Z,1.50
2023-04-14T09:31:02.206Z,1.60
2023-04-14T09:35:10.137Z,1.50
2023-04-14T09:44:11.781Z,1.80
2023-04-14T09:48:15.965Z,1.80
2023-04-14T09:52:22.030Z,1.80
2023-04-14T09:56:29.073Z,1.80
2023-04-14T10:00:33.437Z,1.80
2023-04-14T10:04:38.596Z,1.90
2023-04-14T10:09:21.627Z,1.80
2023-04-14T10:13:25.061Z,1.90
2023-04-14T10:17:37.407Z,1.90
2023-04-14T10:21:42.175Z,2.00
2023-04-14T10:25:51.785Z,1.90
2023-04-14T10:29:55.894Z,2.00
2023-04-14T10:33:59.446Z,1.90
2023-04-14T10:38:04.839Z,2.00
2023-04-14T10:42:11.809Z,2.00
2023-04-14T10:46:22.244Z,2.10
2023-04-14T10:50:31.273Z,2.20
2023-04-14T10:55:16.741Z,2.20
2023-04-14T10:59:22.540Z,2.10
2023-04-14T11:03:34.774Z,2.00
2023-04-14T11:08:01.604Z,2.20
2023-04-14T11:12:31.952Z,2.30
2023-04-14T11:17:02.907Z,2.30
2023-04-14T11:21:12.263Z,2.30
2023-04-14T11:26:05.324Z,2.30
2023-04-14T11:30:10.934Z,2.30
2023-04-14T11:34:15.995Z,2.40
2023-04-14T11:38:20.144Z,2.60
2023-04-14T11:42:23.797Z,2.70
2023-04-14T11:46:27.843Z,2.70
2023-04-14T11:50:39.828Z,2.80
2023-04-14T11:54:47.796Z,2.80
2023-04-14T11:59:13.065Z,3.00
2023-04-14T12:03:17.459Z,2.90
2023-04-14T12:08:12.893Z,3.10
2023-04-14T12:12:19.065Z,3.20
2023-04-14T12:16:40.116Z,3.10
2023-04-14T12:20:44.724Z,3.20
2023-04-14T12:25:12.246Z,3.20
2023-04-14T12:29:17.804Z,3.40
2023-04-14T12:33:24.643Z,3.50
2023-04-14T12:38:20.605Z,3.40
2023-04-14T12:42:24.910Z,3.40
2023-04-14T12:46:33.012Z,3.30
2023-04-14T12:50:36.620Z,3.10
2023-04-14T12:54:50.114Z,3.00
2023-04-14T12:58:54.481Z,2.90
2023-04-14T13:03:24.996Z,2.70
2023-04-14T13:07:28.864Z,2.80
2023-04-14T13:11:59.088Z,3.00
2023-04-14T13:16:14.926Z,3.00
2023-04-14T13:20:26.645Z,2.90
2023-04-14T13:24:39.304Z,3.00
2023-04-14T13:34:49.189Z,2.90
2023-04-14T13:38:56.438Z,2.80
2023-04-14T13:43:03.361Z,2.90
2023-04-14T13:47:06.723Z,2.90
2023-04-14T13:51:11.494Z,2.90
2023-04-14T13:55:16.720Z,2.90
2023-04-14T13:59:22.999Z,3.00
2023-04-14T14:03:28.472Z,2.80
2023-04-14T14:08:01.807Z,2.90
2023-04-14T14:12:06.753Z,2.80
2023-04-14T14:16:44.810Z,2.70
2023-04-14T14:20:48.518Z,2.80
2023-04-14T14:25:14.991Z,2.70
2023-04-14T14:29:24.217Z,2.90
2023-04-14T14:33:27.575Z,2.80
2023-04-14T14:38:28.432Z,2.70
2023-04-14T14:42:32.365Z,2.70
2023-04-14T14:46:40.839Z,2.70
2023-04-14T14:50:45.237Z,2.90
2023-04-14T14:54:49.812Z,2.80
2023-04-14T14:58:53.267Z,2.70
2023-04-14T15:03:23.092Z,2.70
2023-04-14T15:07:27.081Z,2.40
2023-04-14T15:11:30.827Z,2.30
2023-04-14T15:15:35.770Z,2.40
2023-04-14T15:19:44.863Z,2.30
2023-04-14T15:23:48.396Z,2.20
2023-04-14T15:27:52.597Z,2.20
2023-04-14T15:31:56.414Z,2.20
2023-04-14T15:36:02.909Z,2.10
2023-04-14T15:40:07.375Z,2.00
2023-04-14T15:44:14.102Z,2.00
2023-04-14T15:48:18.297Z,2.00
2023-04-14T15:52:28.263Z,2.00
2023-04-14T15:57:05.926Z,1.90
2023-04-14T16:01:13.837Z,1.80
2023-04-14T16:05:21.382Z,1.70
2023-04-14T16:09:26.177Z,1.80
2023-04-14T16:13:58.142Z,1.70
2023-04-14T16:18:02.178Z,1.60
2023-04-14T16:22:29.818Z,1.60
2023-04-14T16:26:35.353Z,1.50
2023-04-14T16:30:39.306Z,1.50
2023-04-14T16:34:42.974Z,1.50
2023-04-14T16:38:46.522Z,1.40
2023-04-14T16:42:56.515Z,1.30
2023-04-14T16:47:02.024Z,1.20
2023-04-14T16:51:10.787Z,1.10
2023-04-14T16:55:16.709Z,1.10
2023-04-14T17:00:14.571Z,1.20
2023-04-14T17:04:20.002Z,1.10
2023-04-14T17:08:54.789Z,1.20
2023-04-14T17:12:58.421Z,1.10
2023-04-14T17:17:27.591Z,1.00
2023-04-14T17:22:05.198Z,1.00
2023-04-14T17:26:10.443Z,1.00
2023-04-14T17:30:42.144Z,1.00
2023-04-14T17:34:49.750Z,1.10
2023-04-14T17:39:04.588Z,1.00
2023-04-14T17:43:17.335Z,1.00
2023-04-14T17:47:23.985Z,1.00
2023-04-14T17:51:30.940Z,1.00
2023-04-14T17:55:38.938Z,1.00
2023-04-14T17:59:50.402Z,1.10
2023-04-14T18:04:04.783Z,1.10
2023-04-14T18:08:10.043Z,1.10
2023-04-14T18:12:23.193Z,1.10
2023-04-14T18:16:28.153Z,1.10
2023-04-14T18:20:59.138Z,1.10
2023-04-14T18:25:02.519Z,1.10
2023-04-14T18:29:06.010Z,1.10
2023-04-14T18:33:14.544Z,1.10
2023-04-14T18:37:18.576Z,1.10
2023-04-14T18:41:26.101Z,1.00
2023-04-14T18:45:29.643Z,1.10
2023-04-14T18:50:41.021Z,1.10
2023-04-14T18:54:45.865Z,1.10
2023-04-14T18:58:51.533Z,1.10
2023-04-14T19:02:55.065Z,1.10
2023-04-14T19:06:58.842Z,1.10
2023-04-14T19:11:12.100Z,1.10
2023-04-14T19:15:15.704Z,1.10
2023-04-14T19:19:19.484Z,1.10
2023-04-14T19:23:27.133Z,1.20
2023-04-14T19:27:33.204Z,1.20
2023-04-14T19:31:37.134Z,1.20
2023-04-14T19:35:44.488Z,1.30
2023-04-14T19:39:48.653Z,1.30
2023-04-14T19:44:12.286Z,1.30
2023-04-14T19:48:22.557Z,1.30
2023-04-14T19:52:28.427Z,1.30
2023-04-14T19:57:01.997Z,1.30
2023-04-14T20:01:22.083Z,1.40
2023-04-14T20:05:27.816Z,1.40
2023-04-14T20:09:32.779Z,1.40
2023-04-14T20:13:38.285Z,1.40
2023-04-14T20:17:55.689Z,1.40
2023-04-14T20:22:00.024Z,1.40
2023-04-14T20:26:09.477Z,1.40
2023-04-14T20:30:19.429Z,1.40
2023-04-14T20:34:25.442Z,1.50
2023-04-14T20:39:20.802Z,1.50
2023-04-14T20:43:33.332Z,1.50
2023-04-14T20:47:37.662Z,1.50
2023-04-14T20:51:49.735Z,1.50
2023-04-14T20:55:55.981Z,1.60
2023-04-14T21:00:07.935Z,1.60
2023-04-14T21:04:12.684Z,1.60
2023-04-14T21:08:20.118Z,1.60
2023-04-14T21:12:24.740Z,1.60
2023-04-14T21:16:40.299Z,1.70
2023-04-14T21:20:47.081Z,1.60
2023-04-14T21:24:54.965Z,1.60
2023-04-14T21:29:00.602Z,1.60
2023-04-14T21:33:07.463Z,1.60
2023-04-14T21:37:12.441Z,1.60
2023-04-14T21:41:27.548Z,1.60
2023-04-14T21:45:31.417Z,1.60
2023-04-14T21:50:12.830Z,1.70
2023-04-14T21:58:47.843Z,1.70
2023-04-14T22:02:55.615Z,1.70
2023-04-14T22:07:03.092Z,1.70
2023-04-14T22:11:16.225Z,1.70
2023-04-14T22:15:22.596Z,1.70
2023-04-14T22:19:30.881Z,1.70
2023-04-14T22:23:34.329Z,1.70
2023-04-14T22:28:28.185Z,1.70
2023-04-14T22:32:33.146Z,1.60
2023-04-14T22:36:37.748Z,1.60
2023-04-14T22:40:42.128Z,1.60
2023-04-14T22:44:51.622Z,1.70
2023-04-14T22:48:57.329Z,1.70
2023-04-14T22:53:02.336Z,1.60
2023-04-14T22:57:05.898Z,1.60
2023-04-14T23:01:21.757Z,1.60
2023-04-14T23:05:27.410Z,1.50
2023-04-14T23:10:22.104Z,1.50
2023-04-14T23:14:25.742Z,1.50
2023-04-14T23:18:33.055Z,1.50
2023-04-14T23:22:37.861Z,1.50
2023-04-14T23:26:45.079Z,1.50
2023-04-14T23:30:49.926Z,1.40
2023-04-14T23:34:53.434Z,1.40
2023-04-14T23:38:58.271Z,1.30
2023-04-14T23:44:07.525Z,1.30
2023-04-14T23:48:10.942Z,1.30
2023-04-14T23:52:15.570Z,1.30
2023-04-14T23:56:21.223Z,1.30
